sensor_id;sensor_type;location;lat;lon;timestamp;P1;durP1;ratioP1;P2;durP2;ratioP2
1366;SDS011;16877;48.810;9.282;2023-06-22T00:01:22;7.43;;;6.73;;
1366;SDS011;16877;48.810;9.282;2023-06-22T00:03:53;8.90;;;6.50;;
1366;SDS011;16877;48.810;9.282;2023-06-22T00:06:20;6.60;;;5.93;;
1366;SDS011;16877;48.810;9.282;2023-06-22T00:08:49;6.40;;;5.70;;
1366;SDS011;16877;48.810;9.282;2023-06-22T00:11:17;7.73;;;7.03;;
1366;SDS011;16877;48.810;9.282;2023-06-22T00:13:45;8.07;;;7.27;;
1366;SDS011;16877;48.810;9.282;2023-06-22T00:16:14;8.73;;;7.70;;
1366;SDS011;16877;48.810;9.282;2023-06-22T00:18:41;7.20;;;6.50;;
1366;SDS011;16877;48.810;9.282;2023-06-22T00:21:13;7.50;;;6.70;;
1366;SDS011;16877;48.810;9.282;2023-06-22T00:23:45;7.40;;;6.80;;
1366;SDS011;16877;48.810;9.282;2023-06-22T00:26:12;6.83;;;6.23;;
1366;SDS011;16877;48.810;9.282;2023-06-22T00:28:40;7.83;;;7.03;;
1366;SDS011;16877;48.810;9.282;2023-06-22T00:31:08;7.60;;;6.90;;
1366;SDS011;16877;48.810;9.282;2023-06-22T00:33:36;7.00;;;6.40;;
1366;SDS011;16877;48.810;9.282;2023-06-22T00:36:20;7.27;;;6.57;;
1366;SDS011;16877;48.810;9.282;2023-06-22T00:38:50;8.00;;;5.97;;
1366;SDS011;16877;48.810;9.282;2023-06-22T00:41:22;7.37;;;6.70;;
1366;SDS011;16877;48.810;9.282;2023-06-22T00:43:53;6.60;;;6.00;;
1366;SDS011;16877;48.810;9.282;2023-06-22T00:46:20;7.43;;;6.43;;
1366;SDS011;16877;48.810;9.282;2023-06-22T00:48:48;7.57;;;6.87;;
1366;SDS011;16877;48.810;9.282;2023-06-22T00:51:30;6.30;;;5.63;;
1366;SDS011;16877;48.810;9.282;2023-06-22T00:53:58;7.13;;;6.13;;
1366;SDS011;16877;48.810;9.282;2023-06-22T00:56:40;7.80;;;7.10;;
1366;SDS011;16877;48.810;9.282;2023-06-22T00:59:08;7.50;;;6.80;;
1366;SDS011;16877;48.810;9.282;2023-06-22T01:01:37;7.03;;;6.40;;
1366;SDS011;16877;48.810;9.282;2023-06-22T01:04:06;7.87;;;7.03;;
1366;SDS011;16877;48.810;9.282;2023-06-22T01:06:40;6.80;;;6.20;;
1366;SDS011;16877;48.810;9.282;2023-06-22T01:09:15;8.60;;;6.27;;
1366;SDS011;16877;48.810;9.282;2023-06-22T01:11:45;8.17;;;7.37;;
1366;SDS011;16877;48.810;9.282;2023-06-22T01:14:18;10.50;;;7.47;;
1366;SDS011;16877;48.810;9.282;2023-06-22T01:16:50;7.57;;;6.77;;
1366;SDS011;16877;48.810;9.282;2023-06-22T01:19:25;7.57;;;6.50;;
1366;SDS011;16877;48.810;9.282;2023-06-22T01:22:03;6.60;;;6.00;;
1366;SDS011;16877;48.810;9.282;2023-06-22T01:24:41;6.70;;;6.10;;
1366;SDS011;16877;48.810;9.282;2023-06-22T01:27:16;9.10;;;8.20;;
1366;SDS011;16877;48.810;9.282;2023-06-22T01:30:00;7.43;;;6.70;;
1366;SDS011;16877;48.810;9.282;2023-06-22T01:32:30;8.00;;;6.70;;
1366;SDS011;16877;48.810;9.282;2023-06-22T01:35:15;7.40;;;6.70;;
1366;SDS011;16877;48.810;9.282;2023-06-22T01:37:44;8.73;;;6.70;;
1366;SDS011;16877;48.810;9.282;2023-06-22T01:40:12;8.67;;;7.53;;
1366;SDS011;16877;48.810;9.282;2023-06-22T01:42:42;7.23;;;6.53;;
1366;SDS011;16877;48.810;9.282;2023-06-22T01:45:26;8.13;;;7.03;;
1366;SDS011;16877;48.810;9.282;2023-06-22T01:47:54;8.53;;;7.70;;
1366;SDS011;16877;48.810;9.282;2023-06-22T01:50:22;8.17;;;7.47;;
1366;SDS011;16877;48.810;9.282;2023-06-22T01:52:50;7.30;;;6.60;;
1366;SDS011;16877;48.810;9.282;2023-06-22T01:55:18;7.57;;;6.87;;
1366;SDS011;16877;48.810;9.282;2023-06-22T01:58:00;7.37;;;6.67;;
1366;SDS011;16877;48.810;9.282;2023-06-22T02:00:45;7.47;;;6.77;;
1366;SDS011;16877;48.810;9.282;2023-06-22T02:03:17;7.90;;;7.20;;
1366;SDS011;16877;48.810;9.282;2023-06-22T02:05:49;7.33;;;5.50;;
1366;SDS011;16877;48.810;9.282;2023-06-22T02:08:19;7.50;;;6.80;;
1366;SDS011;16877;48.810;9.282;2023-06-22T02:10:49;7.57;;;6.87;;
1366;SDS011;16877;48.810;9.282;2023-06-22T02:13:18;7.23;;;6.53;;
1366;SDS011;16877;48.810;9.282;2023-06-22T02:15:47;7.40;;;6.70;;
1366;SDS011;16877;48.810;9.282;2023-06-22T02:18:15;7.53;;;6.83;;
1366;SDS011;16877;48.810;9.282;2023-06-22T02:20:42;7.77;;;6.97;;
1366;SDS011;16877;48.810;9.282;2023-06-22T02:23:25;7.93;;;7.20;;
1366;SDS011;16877;48.810;9.282;2023-06-22T02:25:52;9.13;;;6.10;;
1366;SDS011;16877;48.810;9.282;2023-06-22T02:28:19;7.30;;;6.60;;
1366;SDS011;16877;48.810;9.282;2023-06-22T02:30:48;8.63;;;7.83;;
1366;SDS011;16877;48.810;9.282;2023-06-22T02:33:30;8.10;;;7.30;;
1366;SDS011;16877;48.810;9.282;2023-06-22T02:36:00;7.80;;;7.10;;
1366;SDS011;16877;48.810;9.282;2023-06-22T02:38:30;7.83;;;7.13;;
1366;SDS011;16877;48.810;9.282;2023-06-22T02:41:01;8.50;;;6.93;;
1366;SDS011;16877;48.810;9.282;2023-06-22T02:43:28;7.70;;;7.00;;
1366;SDS011;16877;48.810;9.282;2023-06-22T02:45:58;7.57;;;6.87;;
1366;SDS011;16877;48.810;9.282;2023-06-22T02:48:26;8.37;;;7.57;;
1366;SDS011;16877;48.810;9.282;2023-06-22T02:50:54;7.20;;;6.60;;
1366;SDS011;16877;48.810;9.282;2023-06-22T02:53:21;7.27;;;6.67;;
1366;SDS011;16877;48.810;9.282;2023-06-22T02:55:48;8.30;;;6.50;;
1366;SDS011;16877;48.810;9.282;2023-06-22T02:58:16;9.13;;;7.00;;
1366;SDS011;16877;48.810;9.282;2023-06-22T03:00:43;7.23;;;6.60;;
1366;SDS011;16877;48.810;9.282;2023-06-22T03:03:12;8.70;;;7.00;;
1366;SDS011;16877;48.810;9.282;2023-06-22T03:05:40;7.30;;;6.60;;
1366;SDS011;16877;48.810;9.282;2023-06-22T03:08:07;7.23;;;6.50;;
1366;SDS011;16877;48.810;9.282;2023-06-22T03:10:39;7.00;;;6.40;;
1366;SDS011;16877;48.810;9.282;2023-06-22T03:13:06;7.30;;;6.60;;
1366;SDS011;16877;48.810;9.282;2023-06-22T03:15:34;7.63;;;6.97;;
1366;SDS011;16877;48.810;9.282;2023-06-22T03:18:01;7.93;;;7.13;;
1366;SDS011;16877;48.810;9.282;2023-06-22T03:20:31;8.33;;;7.63;;
1366;SDS011;16877;48.810;9.282;2023-06-22T03:22:58;7.00;;;6.37;;
1366;SDS011;16877;48.810;9.282;2023-06-22T03:25:26;9.23;;;7.23;;
1366;SDS011;16877;48.810;9.282;2023-06-22T03:27:54;8.33;;;7.53;;
1366;SDS011;16877;48.810;9.282;2023-06-22T03:30:21;8.30;;;7.50;;
1366;SDS011;16877;48.810;9.282;2023-06-22T03:32:49;7.20;;;6.40;;
1366;SDS011;16877;48.810;9.282;2023-06-22T03:35:17;7.43;;;6.73;;
1366;SDS011;16877;48.810;9.282;2023-06-22T03:37:50;7.47;;;6.63;;
1366;SDS011;16877;48.810;9.282;2023-06-22T03:40:18;8.50;;;7.80;;
1366;SDS011;16877;48.810;9.282;2023-06-22T03:42:47;8.57;;;6.20;;
1366;SDS011;16877;48.810;9.282;2023-06-22T03:45:29;7.63;;;6.93;;
1366;SDS011;16877;48.810;9.282;2023-06-22T03:48:07;7.77;;;6.43;;
1366;SDS011;16877;48.810;9.282;2023-06-22T03:50:34;6.80;;;6.10;;
1366;SDS011;16877;48.810;9.282;2023-06-22T03:53:04;7.37;;;6.53;;
1366;SDS011;16877;48.810;9.282;2023-06-22T03:55:33;9.00;;;8.10;;
1366;SDS011;16877;48.810;9.282;2023-06-22T03:58:01;8.00;;;7.20;;
1366;SDS011;16877;48.810;9.282;2023-06-22T04:00:30;8.10;;;7.30;;
1366;SDS011;16877;48.810;9.282;2023-06-22T04:02:57;7.53;;;6.83;;
1366;SDS011;16877;48.810;9.282;2023-06-22T04:05:25;8.27;;;7.47;;
1366;SDS011;16877;48.810;9.282;2023-06-22T04:07:53;8.93;;;8.03;;
1366;SDS011;16877;48.810;9.282;2023-06-22T04:10:22;10.33;;;8.10;;
1366;SDS011;16877;48.810;9.282;2023-06-22T04:12:50;7.00;;;6.30;;
1366;SDS011;16877;48.810;9.282;2023-06-22T04:15:17;8.33;;;7.27;;
1366;SDS011;16877;48.810;9.282;2023-06-22T04:17:47;7.93;;;7.13;;
1366;SDS011;16877;48.810;9.282;2023-06-22T04:20:15;7.80;;;6.70;;
1366;SDS011;16877;48.810;9.282;2023-06-22T04:22:46;9.57;;;7.30;;
1366;SDS011;16877;48.810;9.282;2023-06-22T04:25:14;7.90;;;7.20;;
1366;SDS011;16877;48.810;9.282;2023-06-22T04:27:58;8.23;;;7.43;;
1366;SDS011;16877;48.810;9.282;2023-06-22T04:30:29;8.40;;;6.23;;
1366;SDS011;16877;48.810;9.282;2023-06-22T04:33:14;8.07;;;7.27;;
1366;SDS011;16877;48.810;9.282;2023-06-22T04:35:41;7.70;;;7.00;;
1366;SDS011;16877;48.810;9.282;2023-06-22T04:38:12;8.43;;;7.53;;
1366;SDS011;16877;48.810;9.282;2023-06-22T04:40:54;8.00;;;7.20;;
1366;SDS011;16877;48.810;9.282;2023-06-22T04:43:24;8.07;;;7.27;;
1366;SDS011;16877;48.810;9.282;2023-06-22T04:45:56;8.63;;;7.83;;
1366;SDS011;16877;48.810;9.282;2023-06-22T04:48:28;7.67;;;6.97;;
1366;SDS011;16877;48.810;9.282;2023-06-22T04:51:00;8.47;;;7.67;;
1366;SDS011;16877;48.810;9.282;2023-06-22T04:53:30;8.80;;;7.40;;
1366;SDS011;16877;48.810;9.282;2023-06-22T04:56:12;8.03;;;7.17;;
1366;SDS011;16877;48.810;9.282;2023-06-22T04:58:45;10.30;;;8.30;;
1366;SDS011;16877;48.810;9.282;2023-06-22T05:01:26;8.70;;;7.80;;
1366;SDS011;16877;48.810;9.282;2023-06-22T05:03:54;8.53;;;7.50;;
1366;SDS011;16877;48.810;9.282;2023-06-22T05:06:22;7.77;;;7.13;;
1366;SDS011;16877;48.810;9.282;2023-06-22T05:08:51;11.60;;;7.30;;
1366;SDS011;16877;48.810;9.282;2023-06-22T05:11:22;8.77;;;6.67;;
1366;SDS011;16877;48.810;9.282;2023-06-22T05:13:51;7.87;;;7.17;;
1366;SDS011;16877;48.810;9.282;2023-06-22T05:16:33;8.43;;;6.87;;
1366;SDS011;16877;48.810;9.282;2023-06-22T05:19:01;8.10;;;7.30;;
1366;SDS011;16877;48.810;9.282;2023-06-22T05:21:31;7.07;;;6.47;;
1366;SDS011;16877;48.810;9.282;2023-06-22T05:23:59;8.50;;;6.40;;
1366;SDS011;16877;48.810;9.282;2023-06-22T05:26:41;7.07;;;6.47;;
1366;SDS011;16877;48.810;9.282;2023-06-22T05:29:10;7.00;;;6.20;;
1366;SDS011;16877;48.810;9.282;2023-06-22T05:31:38;6.93;;;6.33;;
1366;SDS011;16877;48.810;9.282;2023-06-22T05:34:05;6.93;;;5.97;;
1366;SDS011;16877;48.810;9.282;2023-06-22T05:36:47;7.13;;;6.43;;
1366;SDS011;16877;48.810;9.282;2023-06-22T05:39:15;6.80;;;5.90;;
1366;SDS011;16877;48.810;9.282;2023-06-22T05:41:45;8.00;;;6.23;;
1366;SDS011;16877;48.810;9.282;2023-06-22T05:44:14;6.97;;;6.27;;
1366;SDS011;16877;48.810;9.282;2023-06-22T05:46:44;6.33;;;5.73;;
1366;SDS011;16877;48.810;9.282;2023-06-22T05:49:13;5.77;;;5.27;;
1366;SDS011;16877;48.810;9.282;2023-06-22T05:51:41;6.53;;;5.83;;
1366;SDS011;16877;48.810;9.282;2023-06-22T05:54:10;5.33;;;4.83;;
1366;SDS011;16877;48.810;9.282;2023-06-22T05:56:43;6.00;;;5.40;;
1366;SDS011;16877;48.810;9.282;2023-06-22T05:59:10;8.20;;;5.67;;
1366;SDS011;16877;48.810;9.282;2023-06-22T06:01:42;6.27;;;5.67;;
1366;SDS011;16877;48.810;9.282;2023-06-22T06:04:09;5.50;;;4.87;;
1366;SDS011;16877;48.810;9.282;2023-06-22T06:06:37;5.80;;;5.20;;
1366;SDS011;16877;48.810;9.282;2023-06-22T06:09:07;7.07;;;6.37;;
1366;SDS011;16877;48.810;9.282;2023-06-22T06:11:37;7.53;;;6.03;;
1366;SDS011;16877;48.810;9.282;2023-06-22T06:14:04;6.60;;;5.90;;
1366;SDS011;16877;48.810;9.282;2023-06-22T06:16:32;6.83;;;5.93;;
1366;SDS011;16877;48.810;9.282;2023-06-22T06:19:01;9.33;;;8.43;;
1366;SDS011;16877;48.810;9.282;2023-06-22T06:21:29;10.83;;;9.80;;
1366;SDS011;16877;48.810;9.282;2023-06-22T06:23:56;13.33;;;11.43;;
1366;SDS011;16877;48.810;9.282;2023-06-22T06:26:25;14.77;;;13.30;;
1366;SDS011;16877;48.810;9.282;2023-06-22T06:28:55;18.17;;;15.70;;
1366;SDS011;16877;48.810;9.282;2023-06-22T06:31:25;16.23;;;14.63;;
1366;SDS011;16877;48.810;9.282;2023-06-22T06:33:53;16.00;;;13.97;;
1366;SDS011;16877;48.810;9.282;2023-06-22T06:36:26;15.50;;;14.00;;
1366;SDS011;16877;48.810;9.282;2023-06-22T06:39:08;12.63;;;11.37;;
1366;SDS011;16877;48.810;9.282;2023-06-22T06:41:41;12.57;;;11.27;;
1366;SDS011;16877;48.810;9.282;2023-06-22T06:44:09;11.83;;;10.60;;
1366;SDS011;16877;48.810;9.282;2023-06-22T06:46:39;11.70;;;9.90;;
1366;SDS011;16877;48.810;9.282;2023-06-22T06:49:07;12.03;;;10.10;;
1366;SDS011;16877;48.810;9.282;2023-06-22T06:51:36;9.97;;;9.03;;
1366;SDS011;16877;48.810;9.282;2023-06-22T06:54:06;10.97;;;7.90;;
1366;SDS011;16877;48.810;9.282;2023-06-22T06:56:33;10.40;;;8.40;;
1366;SDS011;16877;48.810;9.282;2023-06-22T06:59:01;8.37;;;7.50;;
1366;SDS011;16877;48.810;9.282;2023-06-22T07:01:28;8.50;;;7.60;;
1366;SDS011;16877;48.810;9.282;2023-06-22T07:03:59;8.40;;;7.50;;
1366;SDS011;16877;48.810;9.282;2023-06-22T07:06:26;7.60;;;6.63;;
1366;SDS011;16877;48.810;9.282;2023-06-22T07:08:58;8.23;;;6.50;;
1366;SDS011;16877;48.810;9.282;2023-06-22T07:11:26;7.90;;;7.13;;
1366;SDS011;16877;48.810;9.282;2023-06-22T07:13:55;7.40;;;6.70;;
1366;SDS011;16877;48.810;9.282;2023-06-22T07:16:23;7.03;;;6.33;;
1366;SDS011;16877;48.810;9.282;2023-06-22T07:18:53;7.30;;;5.83;;
1366;SDS011;16877;48.810;9.282;2023-06-22T07:21:20;8.10;;;6.80;;
1366;SDS011;16877;48.810;9.282;2023-06-22T07:23:59;6.87;;;5.93;;
1366;SDS011;16877;48.810;9.282;2023-06-22T07:26:27;6.50;;;5.90;;
1366;SDS011;16877;48.810;9.282;2023-06-22T07:28:54;6.50;;;5.77;;
1366;SDS011;16877;48.810;9.282;2023-06-22T07:31:27;5.70;;;5.00;;
1366;SDS011;16877;48.810;9.282;2023-06-22T07:34:09;6.50;;;5.20;;
1366;SDS011;16877;48.810;9.282;2023-06-22T07:36:37;5.87;;;5.00;;
1366;SDS011;16877;48.810;9.282;2023-06-22T07:39:21;8.63;;;6.70;;
1366;SDS011;16877;48.810;9.282;2023-06-22T07:41:51;6.20;;;5.60;;
1366;SDS011;16877;48.810;9.282;2023-06-22T07:44:23;5.97;;;5.37;;
1366;SDS011;16877;48.810;9.282;2023-06-22T07:46:50;7.30;;;6.40;;
1366;SDS011;16877;48.810;9.282;2023-06-22T07:49:18;5.77;;;5.13;;
1366;SDS011;16877;48.810;9.282;2023-06-22T07:51:46;6.30;;;5.70;;
1366;SDS011;16877;48.810;9.282;2023-06-22T07:54:14;5.97;;;5.10;;
1366;SDS011;16877;48.810;9.282;2023-06-22T07:56:44;8.10;;;5.23;;
1366;SDS011;16877;48.810;9.282;2023-06-22T07:59:12;5.97;;;5.33;;
1366;SDS011;16877;48.810;9.282;2023-06-22T08:01:40;6.13;;;4.53;;
1366;SDS011;16877;48.810;9.282;2023-06-22T08:04:14;6.10;;;5.53;;
1366;SDS011;16877;48.810;9.282;2023-06-22T08:06:41;5.67;;;5.10;;
1366;SDS011;16877;48.810;9.282;2023-06-22T08:09:08;6.37;;;4.70;;
1366;SDS011;16877;48.810;9.282;2023-06-22T08:11:36;6.33;;;5.13;;
1366;SDS011;16877;48.810;9.282;2023-06-22T08:14:05;6.50;;;5.50;;
1366;SDS011;16877;48.810;9.282;2023-06-22T08:16:33;6.37;;;5.73;;
1366;SDS011;16877;48.810;9.282;2023-06-22T08:19:00;6.37;;;5.77;;
1366;SDS011;16877;48.810;9.282;2023-06-22T08:21:28;6.10;;;4.73;;
1366;SDS011;16877;48.810;9.282;2023-06-22T08:23:55;6.13;;;5.10;;
1366;SDS011;16877;48.810;9.282;2023-06-22T08:26:23;7.30;;;5.20;;
1366;SDS011;16877;48.810;9.282;2023-06-22T08:28:51;5.97;;;4.20;;
1366;SDS011;16877;48.810;9.282;2023-06-22T08:31:20;7.90;;;4.57;;
1366;SDS011;16877;48.810;9.282;2023-06-22T08:34:02;4.87;;;4.37;;
1366;SDS011;16877;48.810;9.282;2023-06-22T08:36:29;5.00;;;4.30;;
1366;SDS011;16877;48.810;9.282;2023-06-22T08:38:57;6.07;;;5.13;;
1366;SDS011;16877;48.810;9.282;2023-06-22T08:41:28;5.13;;;4.63;;
1366;SDS011;16877;48.810;9.282;2023-06-22T08:44:00;5.50;;;4.97;;
1366;SDS011;16877;48.810;9.282;2023-06-22T08:46:31;5.63;;;4.33;;
1366;SDS011;16877;48.810;9.282;2023-06-22T08:49:14;6.30;;;5.37;;
1366;SDS011;16877;48.810;9.282;2023-06-22T08:51:41;5.33;;;4.13;;
1366;SDS011;16877;48.810;9.282;2023-06-22T08:54:09;4.97;;;4.43;;
1366;SDS011;16877;48.810;9.282;2023-06-22T08:56:37;5.17;;;4.10;;
1366;SDS011;16877;48.810;9.282;2023-06-22T08:59:19;5.90;;;5.30;;
1366;SDS011;16877;48.810;9.282;2023-06-22T09:01:48;8.47;;;5.90;;
1366;SDS011;16877;48.810;9.282;2023-06-22T09:04:16;8.60;;;5.10;;
1366;SDS011;16877;48.810;9.282;2023-06-22T09:06:44;6.27;;;4.77;;
1366;SDS011;16877;48.810;9.282;2023-06-22T09:09:26;6.23;;;4.73;;
1366;SDS011;16877;48.810;9.282;2023-06-22T09:11:54;5.67;;;4.83;;
1366;SDS011;16877;48.810;9.282;2023-06-22T09:14:22;4.73;;;4.23;;
1366;SDS011;16877;48.810;9.282;2023-06-22T09:16:51;6.40;;;5.20;;
1366;SDS011;16877;48.810;9.282;2023-06-22T09:19:18;6.63;;;4.50;;
1366;SDS011;16877;48.810;9.282;2023-06-22T09:22:00;6.37;;;5.10;;
1366;SDS011;16877;48.810;9.282;2023-06-22T09:24:28;5.00;;;4.50;;
1366;SDS011;16877;48.810;9.282;2023-06-22T09:26:56;7.37;;;4.93;;
1366;SDS011;16877;48.810;9.282;2023-06-22T09:29:23;7.20;;;4.87;;
1366;SDS011;16877;48.810;9.282;2023-06-22T09:31:53;10.43;;;5.03;;
1366;SDS011;16877;48.810;9.282;2023-06-22T09:34:21;6.63;;;4.80;;
1366;SDS011;16877;48.810;9.282;2023-06-22T09:36:48;7.13;;;6.07;;
1366;SDS011;16877;48.810;9.282;2023-06-22T09:39:17;7.20;;;5.00;;
1366;SDS011;16877;48.810;9.282;2023-06-22T09:41:44;5.40;;;4.33;;
1366;SDS011;16877;48.810;9.282;2023-06-22T09:44:12;8.50;;;5.40;;
1366;SDS011;16877;48.810;9.282;2023-06-22T09:46:40;6.53;;;5.17;;
1366;SDS011;16877;48.810;9.282;2023-06-22T09:49:10;5.70;;;4.90;;
1366;SDS011;16877;48.810;9.282;2023-06-22T09:51:37;7.10;;;4.87;;
1366;SDS011;16877;48.810;9.282;2023-06-22T09:54:19;7.83;;;5.33;;
1366;SDS011;16877;48.810;9.282;2023-06-22T09:56:47;7.60;;;4.70;;
1366;SDS011;16877;48.810;9.282;2023-06-22T09:59:14;5.83;;;4.77;;
1366;SDS011;16877;48.810;9.282;2023-06-22T10:01:42;5.77;;;4.70;;
1366;SDS011;16877;48.810;9.282;2023-06-22T10:04:13;6.50;;;4.90;;
1366;SDS011;16877;48.810;9.282;2023-06-22T10:06:56;6.13;;;5.13;;
1366;SDS011;16877;48.810;9.282;2023-06-22T10:09:24;5.67;;;5.10;;
1366;SDS011;16877;48.810;9.282;2023-06-22T10:11:52;7.40;;;5.20;;
1366;SDS011;16877;48.810;9.282;2023-06-22T10:14:34;7.00;;;4.83;;
1366;SDS011;16877;48.810;9.282;2023-06-22T10:17:02;6.87;;;5.00;;
1366;SDS011;16877;48.810;9.282;2023-06-22T10:19:34;6.10;;;5.00;;
1366;SDS011;16877;48.810;9.282;2023-06-22T10:22:03;5.93;;;4.70;;
1366;SDS011;16877;48.810;9.282;2023-06-22T10:24:32;9.30;;;5.23;;
1366;SDS011;16877;48.810;9.282;2023-06-22T10:26:59;6.93;;;5.10;;
1366;SDS011;16877;48.810;9.282;2023-06-22T10:29:27;5.90;;;5.00;;
1366;SDS011;16877;48.810;9.282;2023-06-22T10:31:54;6.77;;;5.17;;
1366;SDS011;16877;48.810;9.282;2023-06-22T10:34:21;8.00;;;5.57;;
1366;SDS011;16877;48.810;9.282;2023-06-22T10:36:50;7.10;;;5.30;;
1366;SDS011;16877;48.810;9.282;2023-06-22T10:39:19;7.73;;;4.80;;
1366;SDS011;16877;48.810;9.282;2023-06-22T10:41:51;7.30;;;4.80;;
1366;SDS011;16877;48.810;9.282;2023-06-22T10:44:18;7.60;;;4.47;;
1366;SDS011;16877;48.810;9.282;2023-06-22T10:46:46;6.73;;;4.90;;
1366;SDS011;16877;48.810;9.282;2023-06-22T10:49:13;6.53;;;5.10;;
1366;SDS011;16877;48.810;9.282;2023-06-22T10:51:43;7.93;;;4.80;;
1366;SDS011;16877;48.810;9.282;2023-06-22T10:54:13;8.37;;;4.83;;
1366;SDS011;16877;48.810;9.282;2023-06-22T10:56:43;7.40;;;5.00;;
1366;SDS011;16877;48.810;9.282;2023-06-22T10:59:12;5.30;;;4.73;;
1366;SDS011;16877;48.810;9.282;2023-06-22T11:01:41;8.40;;;5.50;;
1366;SDS011;16877;48.810;9.282;2023-06-22T11:04:08;9.63;;;5.70;;
1366;SDS011;16877;48.810;9.282;2023-06-22T11:06:36;7.30;;;4.30;;
1366;SDS011;16877;48.810;9.282;2023-06-22T11:09:03;8.80;;;5.20;;
1366;SDS011;16877;48.810;9.282;2023-06-22T11:11:33;6.07;;;4.97;;
1366;SDS011;16877;48.810;9.282;2023-06-22T11:14:00;5.60;;;4.23;;
1366;SDS011;16877;48.810;9.282;2023-06-22T11:16:27;6.40;;;5.17;;
1366;SDS011;16877;48.810;9.282;2023-06-22T11:18:55;5.83;;;4.53;;
1366;SDS011;16877;48.810;9.282;2023-06-22T11:21:22;6.27;;;4.33;;
1366;SDS011;16877;48.810;9.282;2023-06-22T11:23:52;5.33;;;4.57;;
1366;SDS011;16877;48.810;9.282;2023-06-22T11:26:20;8.33;;;5.10;;
1366;SDS011;16877;48.810;9.282;2023-06-22T11:28:49;8.10;;;5.33;;
1366;SDS011;16877;48.810;9.282;2023-06-22T11:31:16;9.10;;;5.83;;
1366;SDS011;16877;48.810;9.282;2023-06-22T11:33:45;6.97;;;5.70;;
1366;SDS011;16877;48.810;9.282;2023-06-22T11:36:13;5.83;;;4.80;;
1366;SDS011;16877;48.810;9.282;2023-06-22T11:38:41;6.90;;;5.47;;
1366;SDS011;16877;48.810;9.282;2023-06-22T11:41:09;7.90;;;5.43;;
1366;SDS011;16877;48.810;9.282;2023-06-22T11:43:37;7.40;;;5.20;;
1366;SDS011;16877;48.810;9.282;2023-06-22T11:46:09;6.50;;;4.80;;
1366;SDS011;16877;48.810;9.282;2023-06-22T11:48:42;6.00;;;4.63;;
1366;SDS011;16877;48.810;9.282;2023-06-22T11:51:09;8.23;;;4.67;;
1366;SDS011;16877;48.810;9.282;2023-06-22T11:53:39;6.10;;;4.80;;
1366;SDS011;16877;48.810;9.282;2023-06-22T11:56:06;8.43;;;6.47;;
1366;SDS011;16877;48.810;9.282;2023-06-22T11:58:49;8.13;;;5.03;;
1366;SDS011;16877;48.810;9.282;2023-06-22T12:01:19;6.57;;;5.07;;
1366;SDS011;16877;48.810;9.282;2023-06-22T12:03:46;7.73;;;5.37;;
1366;SDS011;16877;48.810;9.282;2023-06-22T12:06:14;8.07;;;5.53;;
1366;SDS011;16877;48.810;9.282;2023-06-22T12:08:56;8.17;;;5.50;;
1366;SDS011;16877;48.810;9.282;2023-06-22T12:11:24;9.50;;;6.30;;
1366;SDS011;16877;48.810;9.282;2023-06-22T12:13:51;8.20;;;6.10;;
1366;SDS011;16877;48.810;9.282;2023-06-22T12:16:21;10.37;;;6.20;;
1366;SDS011;16877;48.810;9.282;2023-06-22T12:18:49;8.00;;;4.80;;
1366;SDS011;16877;48.810;9.282;2023-06-22T12:21:17;7.80;;;5.70;;
1366;SDS011;16877;48.810;9.282;2023-06-22T12:23:44;12.03;;;6.70;;
1366;SDS011;16877;48.810;9.282;2023-06-22T12:26:27;8.70;;;5.90;;
1366;SDS011;16877;48.810;9.282;2023-06-22T12:29:09;10.20;;;6.43;;
1366;SDS011;16877;48.810;9.282;2023-06-22T12:31:38;6.67;;;5.00;;
1366;SDS011;16877;48.810;9.282;2023-06-22T12:34:06;7.60;;;5.60;;
1366;SDS011;16877;48.810;9.282;2023-06-22T12:36:34;7.83;;;5.33;;
1366;SDS011;16877;48.810;9.282;2023-06-22T12:39:02;9.80;;;6.50;;
1366;SDS011;16877;48.810;9.282;2023-06-22T12:41:29;6.73;;;5.20;;
1366;SDS011;16877;48.810;9.282;2023-06-22T12:43:57;6.67;;;5.27;;
1366;SDS011;16877;48.810;9.282;2023-06-22T12:46:35;7.97;;;5.47;;
1366;SDS011;16877;48.810;9.282;2023-06-22T12:49:04;7.83;;;5.80;;
1366;SDS011;16877;48.810;9.282;2023-06-22T12:51:32;8.33;;;5.53;;
1366;SDS011;16877;48.810;9.282;2023-06-22T12:53:59;9.60;;;6.20;;
1366;SDS011;16877;48.810;9.282;2023-06-22T12:56:27;7.50;;;6.13;;
1366;SDS011;16877;48.810;9.282;2023-06-22T12:58:54;9.70;;;6.40;;
1366;SDS011;16877;48.810;9.282;2023-06-22T13:01:22;11.73;;;6.20;;
1366;SDS011;16877;48.810;9.282;2023-06-22T13:03:49;12.10;;;6.83;;
1366;SDS011;16877;48.810;9.282;2023-06-22T13:06:18;9.80;;;5.03;;
1366;SDS011;16877;48.810;9.282;2023-06-22T13:08:45;8.00;;;6.00;;
1366;SDS011;16877;48.810;9.282;2023-06-22T13:11:13;10.50;;;6.30;;
1366;SDS011;16877;48.810;9.282;2023-06-22T13:13:51;7.93;;;5.63;;
1366;SDS011;16877;48.810;9.282;2023-06-22T13:16:19;11.27;;;7.13;;
1366;SDS011;16877;48.810;9.282;2023-06-22T13:18:46;6.10;;;5.50;;
1366;SDS011;16877;48.810;9.282;2023-06-22T13:21:14;9.10;;;6.53;;
1366;SDS011;16877;48.810;9.282;2023-06-22T13:23:43;8.00;;;6.03;;
1366;SDS011;16877;48.810;9.282;2023-06-22T13:26:13;9.97;;;6.40;;
1366;SDS011;16877;48.810;9.282;2023-06-22T13:28:41;9.27;;;6.33;;
1366;SDS011;16877;48.810;9.282;2023-06-22T13:31:23;12.10;;;6.87;;
1366;SDS011;16877;48.810;9.282;2023-06-22T13:33:50;11.17;;;6.53;;
1366;SDS011;16877;48.810;9.282;2023-06-22T13:36:18;7.30;;;6.20;;
1366;SDS011;16877;48.810;9.282;2023-06-22T13:39:02;9.37;;;7.00;;
1366;SDS011;16877;48.810;9.282;2023-06-22T13:41:29;11.70;;;6.77;;
1366;SDS011;16877;48.810;9.282;2023-06-22T13:43:57;9.10;;;6.37;;
1366;SDS011;16877;48.810;9.282;2023-06-22T13:46:24;10.10;;;7.00;;
1366;SDS011;16877;48.810;9.282;2023-06-22T13:49:02;10.07;;;6.40;;
1366;SDS011;16877;48.810;9.282;2023-06-22T13:51:29;7.53;;;5.63;;
1366;SDS011;16877;48.810;9.282;2023-06-22T13:53:56;8.50;;;5.90;;
1366;SDS011;16877;48.810;9.282;2023-06-22T13:56:26;16.10;;;7.00;;
1366;SDS011;16877;48.810;9.282;2023-06-22T13:58:58;8.83;;;5.70;;
1366;SDS011;16877;48.810;9.282;2023-06-22T14:01:26;9.67;;;6.10;;
1366;SDS011;16877;48.810;9.282;2023-06-22T14:03:53;7.80;;;6.17;;
1366;SDS011;16877;48.810;9.282;2023-06-22T14:06:21;8.33;;;5.97;;
1366;SDS011;16877;48.810;9.282;2023-06-22T14:08:48;7.67;;;5.97;;
1366;SDS011;16877;48.810;9.282;2023-06-22T14:11:16;9.97;;;5.83;;
1366;SDS011;16877;48.810;9.282;2023-06-22T14:13:45;14.53;;;6.70;;
1366;SDS011;16877;48.810;9.282;2023-06-22T14:16:12;7.00;;;5.17;;
1366;SDS011;16877;48.810;9.282;2023-06-22T14:18:44;9.70;;;6.43;;
1366;SDS011;16877;48.810;9.282;2023-06-22T14:21:13;8.97;;;5.57;;
1366;SDS011;16877;48.810;9.282;2023-06-22T14:23:42;7.73;;;5.63;;
1366;SDS011;16877;48.810;9.282;2023-06-22T14:26:14;11.03;;;6.77;;
1366;SDS011;16877;48.810;9.282;2023-06-22T14:28:42;7.83;;;5.30;;
1366;SDS011;16877;48.810;9.282;2023-06-22T14:31:15;10.03;;;5.60;;
1366;SDS011;16877;48.810;9.282;2023-06-22T14:33:45;8.50;;;5.23;;
1366;SDS011;16877;48.810;9.282;2023-06-22T14:36:15;7.50;;;5.90;;
1366;SDS011;16877;48.810;9.282;2023-06-22T14:38:43;7.93;;;5.50;;
1366;SDS011;16877;48.810;9.282;2023-06-22T14:41:11;8.03;;;5.67;;
1366;SDS011;16877;48.810;9.282;2023-06-22T14:43:45;8.80;;;5.20;;
1366;SDS011;16877;48.810;9.282;2023-06-22T14:46:17;11.10;;;6.00;;
1366;SDS011;16877;48.810;9.282;2023-06-22T14:48:45;9.63;;;5.70;;
1366;SDS011;16877;48.810;9.282;2023-06-22T14:51:15;6.00;;;4.60;;
1366;SDS011;16877;48.810;9.282;2023-06-22T14:53:43;9.88;;;5.35;;
1366;SDS011;16877;48.810;9.282;2023-06-22T14:56:11;8.07;;;5.30;;
1366;SDS011;16877;48.810;9.282;2023-06-22T14:58:41;8.18;;;4.82;;
1366;SDS011;16877;48.810;9.282;2023-06-22T15:01:11;9.05;;;5.15;;
1366;SDS011;16877;48.810;9.282;2023-06-22T15:03:40;8.20;;;5.45;;
1366;SDS011;16877;48.810;9.282;2023-06-22T15:06:08;8.63;;;5.05;;
1366;SDS011;16877;48.810;9.282;2023-06-22T15:08:36;10.23;;;5.63;;
1366;SDS011;16877;48.810;9.282;2023-06-22T15:11:11;8.57;;;4.88;;
1366;SDS011;16877;48.810;9.282;2023-06-22T15:13:53;7.30;;;4.80;;
1366;SDS011;16877;48.810;9.282;2023-06-22T15:16:20;9.15;;;5.00;;
1366;SDS011;16877;48.810;9.282;2023-06-22T15:18:50;10.23;;;4.75;;